Time;durP1;ratioP1;P1;durP2;ratioP2;P2;SDS_P1;SDS_P2;PMS_P1;PMS_P2;Temp;Humidity;BMP_temperature;BMP_pressure;BME280_temperature;BME280_humidity;BME280_pressure;Samples;Min_cycle;Max_cycle;Signal;HPM_P1;HPM_P2
2023/08/12 06:27:01;;;;;;;8.82;6.43;;;;;;;19.82;93.53;96787.28;2085661;28;20582;-67
2023/08/12 06:29:43;;;;;;;15.23;6.78;;;;;;;19.84;93.61;96788.03;2091115;28;20554;-67
2023/08/12 06:32:36;;;;;;;10.93;5.82;;;;;;;19.80;94.52;96790.06;2099055;28;20552;-68
2023/08/12 06:35:31;;;;;;;8.15;6.07;;;;;;;20.11;92.81;96781.47;2092101;27;21073;-67
2023/08/12 06:38:18;;;;;;;11.73;7.18;;;;;;;20.67;93.13;96783.94;2087334;28;20567;-67
2023/08/12 06:39:20;;;;;;;8.93;5.43;;;;;;;20.91;92.12;96777.53;2077761;28;20263;-68
2023/08/12 06:42:13;;;;;;;9.80;5.32;;;;;;;21.13;90.16;96784.53;2093497;27;21232;-68
2023/08/12 06:45:03;;;;;;;16.00;5.68;;;;;;;21.16;89.55;96784.25;2083023;28;20562;-68
2023/08/12 06:46:05;;;;;;;11.75;5.90;;;;;;;21.49;89.14;96779.66;2081747;28;20287;-68
2023/08/12 06:49:17;;;;;;;6.95;5.25;;;;;;;21.51;89.51;96787.53;2101542;27;20574;-70
2023/08/12 07:07:03;;;;;;;7.95;5.50;;;;;;;21.52;88.67;96797.16;2085214;28;20893;-68
2023/08/12 07:09:29;;;;;;;16.25;6.53;;;;;;;22.10;87.98;96795.69;2098240;27;20554;-68
2023/08/12 07:10:30;;;;;;;11.80;5.78;;;;;;;22.12;86.97;96793.75;2089728;28;20627;-68
2023/08/12 07:11:32;;;;;;;7.82;5.28;;;;;;;22.34;86.06;96784.66;2090187;28;20200;-69
2023/08/12 07:12:33;;;;;;;9.40;5.03;;;;;;;22.57;85.47;96795.91;2090843;28;20191;-70
2023/08/12 07:13:35;;;;;;;9.68;5.30;;;;;;;22.87;83.98;96791.41;2091269;28;20227;-70
2023/08/12 07:14:36;;;;;;;5.25;4.28;;;;;;;23.10;83.07;96796.44;2087084;28;20200;-70
2023/08/12 07:17:28;;;;;;;6.82;4.57;;;;;;;23.41;78.54;96799.72;2084948;28;20551;-70
2023/08/12 07:18:29;;;;;;;7.40;4.10;;;;;;;23.40;79.09;96791.88;2079554;28;20201;-70
2023/08/12 07:19:31;;;;;;;5.50;4.18;;;;;;;23.56;79.32;96801.94;2078194;28;20189;-70
2023/08/12 07:20:32;;;;;;;9.50;4.00;;;;;;;23.84;77.90;96802.78;2069119;28;20224;-70
2023/08/12 07:21:34;;;;;;;6.22;4.07;;;;;;;24.02;77.35;96797.50;2072560;28;20225;-70
2023/08/12 07:22:35;;;;;;;10.05;4.30;;;;;;;23.90;77.24;96796.84;2071875;28;20202;-70
2023/08/12 07:23:37;;;;;;;8.30;4.32;;;;;;;24.11;75.79;96801.97;2070468;28;20550;-71
2023/08/12 07:24:40;;;;;;;8.65;4.65;;;;;;;24.03;75.40;96798.38;2072103;28;20193;-71
2023/08/12 07:25:42;;;;;;;9.57;4.30;;;;;;;24.29;75.20;96803.84;2072664;28;20229;-71
2023/08/12 07:26:43;;;;;;;5.10;3.67;;;;;;;24.61;74.30;96800.63;2072086;28;20292;-71
2023/08/12 07:27:45;;;;;;;6.88;4.22;;;;;;;25.02;73.13;96805.50;2073025;28;20202;-71
2023/08/12 07:28:46;;;;;;;5.82;4.32;;;;;;;25.11;71.69;96801.06;2079499;28;20200;-71
2023/08/12 07:29:48;;;;;;;7.68;4.22;;;;;;;25.36;71.89;96791.41;2079264;28;20241;-70
2023/08/12 07:30:50;;;;;;;9.77;4.65;;;;;;;25.43;71.46;96786.25;2072953;28;20682;-68
2023/08/12 07:31:52;;;;;;;5.45;3.83;;;;;;;25.85;71.25;96788.16;2071747;28;20207;-69
2023/08/12 07:32:54;;;;;;;7.88;4.40;;;;;;;25.76;70.65;96791.75;2070992;28;20228;-68
2023/08/12 07:33:55;;;;;;;10.15;4.63;;;;;;;25.72;70.85;96793.09;2069702;28;20205;-69
2023/08/12 07:34:57;;;;;;;5.57;3.72;;;;;;;25.65;71.57;96794.72;2070967;28;20236;-68
2023/08/12 07:35:58;;;;;;;5.30;4.07;;;;;;;25.73;71.09;96786.75;2073705;28;20204;-68
2023/08/12 07:37:00;;;;;;;8.00;4.53;;;;;;;25.93;70.27;96787.34;2074772;28;20304;-68
2023/08/12 07:38:01;;;;;;;5.78;4.38;;;;;;;25.58;70.52;96789.19;2074422;28;20193;-68
2023/08/12 07:39:03;;;;;;;9.05;4.35;;;;;;;25.47;71.11;96787.63;2073198;28;20284;-68
2023/08/12 07:40:05;;;;;;;5.47;3.90;;;;;;;25.60;71.31;96784.53;2073194;28;20304;-68
2023/08/12 07:41:06;;;;;;;12.80;5.10;;;;;;;26.13;70.38;96785.25;2073072;28;20251;-68
2023/08/12 07:42:08;;;;;;;7.57;4.32;;;;;;;25.74;69.85;96783.09;2072413;28;20840;-69
2023/08/12 07:43:09;;;;;;;7.82;4.00;;;;;;;26.03;70.03;96777.34;2072220;28;20193;-68
2023/08/12 07:44:11;;;;;;;5.07;4.00;;;;;;;26.33;68.86;96785.78;2070681;28;20197;-69
2023/08/12 07:45:13;;;;;;;8.55;3.55;;;;;;;26.65;67.74;96780.63;2069342;28;20241;-69
2023/08/12 07:46:14;;;;;;;8.38;3.95;;;;;;;26.68;67.15;96777.66;2069585;28;20205;-69
2023/08/12 07:47:16;;;;;;;5.13;3.70;;;;;;;26.54;66.10;96785.31;2068743;28;20289;-69
2023/08/12 07:48:17;;;;;;;5.25;4.15;;;;;;;26.67;65.88;96779.47;2068325;28;20241;-69
2023/08/12 07:49:19;;;;;;;10.65;4.22;;;;;;;26.45;66.49;96788.16;2068320;28;20201;-69
2023/08/12 07:50:20;;;;;;;5.70;3.50;;;;;;;26.55;65.70;96783.47;2069623;28;20321;-70
2023/08/12 07:51:22;;;;;;;6.85;3.78;;;;;;;26.59;65.87;96784.84;2074328;28;20212;-70
2023/08/12 07:52:24;;;;;;;4.78;3.70;;;;;;;26.14;66.53;96781.56;2073548;28;20194;-70
2023/08/12 07:53:26;;;;;;;5.22;3.85;;;;;;;26.56;65.74;96774.44;2073178;28;20593;-70
2023/08/12 07:54:27;;;;;;;6.90;4.43;;;;;;;26.85;63.68;96782.00;2071906;28;20283;-70
2023/08/12 07:55:29;;;;;;;6.25;4.07;;;;;;;27.01;63.67;96783.03;2071642;28;20213;-70
2023/08/12 07:56:31;;;;;;;5.70;2.85;;;;;;;26.84;64.39;96764.28;2072043;28;20803;-70
2023/08/12 07:57:32;;;;;;;4.78;3.55;;;;;;;27.28;64.75;96781.81;2068351;28;20207;-70
2023/08/12 07:58:34;;;;;;;4.78;3.83;;;;;;;27.08;64.41;96785.84;2067980;28;20191;-70
2023/08/12 07:59:35;;;;;;;10.45;3.65;;;;;;;26.96;63.97;96780.03;2070706;28;20197;-71
2023/08/12 08:00:36;;;;;;;8.07;3.95;;;;;;;27.14;64.73;96780.66;2073208;28;20214;-70
2023/08/12 08:01:38;;;;;;;8.75;3.60;;;;;;;27.07;66.50;96774.31;2072849;28;20723;-70
2023/08/12 08:02:40;;;;;;;8.25;4.13;;;;;;;27.48;65.08;96776.09;2072657;28;20698;-70
2023/08/12 08:03:42;;;;;;;7.03;3.45;;;;;;;27.95;63.50;96782.47;2072016;28;20201;-70
2023/08/12 08:04:43;;;;;;;5.97;3.92;;;;;;;28.39;61.73;96775.69;2072773;28;20247;-71
2023/08/12 08:05:46;;;;;;;4.97;4.00;;;;;;;28.07;63.05;96781.06;2072726;28;20230;-70
2023/08/12 08:06:48;;;;;;;6.70;3.75;;;;;;;28.29;61.75;96775.91;2072378;28;20649;-71
2023/08/12 08:07:52;;;;;;;6.87;3.63;;;;;;;28.05;61.55;96775.06;2069751;28;20613;-70
2023/08/12 08:08:53;;;;;;;5.43;3.80;;;;;;;27.83;62.09;96785.53;2070937;28;20432;-71
2023/08/12 08:09:55;;;;;;;6.70;3.87;;;;;;;28.34;61.79;96782.44;2069537;28;20488;-70
2023/08/12 08:10:56;;;;;;;4.50;3.50;;;;;;;28.19;61.31;96776.16;2074448;28;20430;-71
2023/08/12 08:11:58;;;;;;;6.50;3.97;;;;;;;28.06;62.00;96779.44;2070724;28;20790;-71
2023/08/12 08:12:59;;;;;;;5.20;3.30;;;;;;;28.16;61.06;96777.34;2067619;28;20463;-71
2023/08/12 08:14:01;;;;;;;9.67;4.13;;;;;;;27.84;61.66;96779.13;2068134;28;20953;-69
2023/08/12 08:15:03;;;;;;;5.10;3.33;;;;;;;27.61;62.72;96780.91;2069023;28;20438;-69
2023/08/12 08:16:05;;;;;;;6.60;3.70;;;;;;;27.91;61.99;96787.34;2071835;28;20426;-70
2023/08/12 08:17:07;;;;;;;6.77;3.63;;;;;;;28.02;62.21;96778.06;2074256;28;20463;-69
2023/08/12 08:18:09;;;;;;;7.10;3.80;;;;;;;28.08;62.62;96774.69;2071650;28;20436;-69
2023/08/12 08:19:11;;;;;;;10.90;4.30;;;;;;;28.05;62.21;96776.91;2069475;28;20432;-69
2023/08/12 08:20:13;;;;;;;10.50;3.57;;;;;;;27.82;62.42;96775.81;2068610;28;20477;-71
2023/08/12 08:21:15;;;;;;;6.13;4.00;;;;;;;27.77;61.57;96767.44;2072008;28;20436;-69
2023/08/12 08:22:17;;;;;;;4.73;3.13;;;;;;;27.98;62.14;96763.31;2073420;28;20427;-70
2023/08/12 08:23:19;;;;;;;8.17;3.60;;;;;;;28.42;62.10;96768.13;2075117;28;20970;-69
2023/08/12 08:24:20;;;;;;;6.40;3.40;;;;;;;28.74;61.18;96760.88;2072799;28;20428;-70
2023/08/12 08:25:22;;;;;;;3.63;2.90;;;;;;;29.22;60.75;96762.47;2069184;28;21030;-70
2023/08/12 08:26:23;;;;;;;6.20;3.70;;;;;;;29.51;59.36;96759.00;2072805;28;20431;-70
2023/08/12 08:27:25;;;;;;;11.60;4.80;;;;;;;29.55;58.56;96757.59;2073703;28;20497;-70
2023/08/12 08:28:27;;;;;;;9.70;3.40;;;;;;;29.26;59.54;96758.38;2071191;28;20428;-70
2023/08/12 08:29:29;;;;;;;5.37;3.90;;;;;;;28.97;58.82;96758.13;2069749;28;20481;-69
2023/08/12 08:30:30;;;;;;;5.37;3.70;;;;;;;28.78;59.08;96755.97;2068030;28;20464;-70
2023/08/12 08:31:32;;;;;;;7.87;4.07;;;;;;;28.62;59.42;96764.94;2065041;28;20427;-70
2023/08/12 08:32:33;;;;;;;6.43;3.87;;;;;;;28.87;58.77;96759.44;2067517;28;20876;-69
2023/08/12 08:33:35;;;;;;;5.97;4.10;;;;;;;28.75;59.13;96767.91;2067392;28;20444;-69
2023/08/12 08:34:36;;;;;;;6.07;3.83;;;;;;;28.42;60.12;96772.69;2065733;28;20427;-69
2023/08/12 08:35:38;;;;;;;6.30;3.50;;;;;;;28.34;60.98;96771.69;2064922;28;20799;-70
2023/08/12 08:36:39;;;;;;;5.30;3.20;;;;;;;28.09;61.09;96768.31;2066317;28;20438;-69
2023/08/12 08:37:41;;;;;;;5.00;4.27;;;;;;;28.24;60.61;96772.94;2067533;28;20922;-70
2023/08/12 08:38:42;;;;;;;4.53;3.33;;;;;;;28.29;60.32;96767.88;2068915;28;20427;-69
2023/08/12 08:39:43;;;;;;;4.67;3.43;;;;;;;28.04;61.31;96770.72;2064886;28;20458;-69
2023/08/12 08:40:45;;;;;;;5.03;3.80;;;;;;;27.69;61.06;96767.47;2064252;28;20471;-70
2023/08/12 08:41:48;;;;;;;10.47;4.40;;;;;;;27.84;61.66;96771.09;2066600;28;20470;-70
2023/08/12 08:42:55;;;;;;;5.27;3.50;;;;;;;28.03;61.39;96772.53;2066677;28;20428;-69
2023/08/12 08:44:02;;;;;;;6.07;3.57;;;;;;;28.33;60.41;96775.41;2060189;28;20435;-70
2023/08/12 08:45:10;;;;;;;6.40;4.57;;;;;;;28.64;60.33;96769.13;2055886;28;20502;-69
2023/08/12 08:46:16;;;;;;;11.40;3.70;;;;;;;28.84;60.80;96769.50;2064907;28;20428;-70
2023/08/12 08:47:24;;;;;;;5.60;3.57;;;;;;;28.94;59.12;96766.56;2065085;28;20492;-70
2023/08/12 08:48:25;;;;;;;6.33;3.67;;;;;;;28.90;58.77;96761.72;2066759;28;20433;-70
2023/08/12 08:49:28;;;;;;;6.97;3.87;;;;;;;28.84;58.84;96761.44;2065804;28;20902;-69
2023/08/12 08:50:30;;;;;;;7.60;3.63;;;;;;;29.31;59.13;96764.91;2066497;28;20583;-69
2023/08/12 08:51:32;;;;;;;9.40;4.30;;;;;;;28.60;59.06;96772.38;2064837;28;20432;-70
2023/08/12 08:52:34;;;;;;;6.27;3.40;;;;;;;28.74;58.71;96771.59;2063404;28;20435;-69
2023/08/12 08:53:39;;;;;;;6.43;3.40;;;;;;;28.77;59.08;96765.91;2063799;28;20541;-69
2023/08/12 08:54:40;;;;;;;6.80;3.53;;;;;;;28.41;59.41;96771.81;2065014;28;20521;-70
2023/08/12 08:55:42;;;;;;;4.30;3.20;;;;;;;28.39;60.01;96771.19;2065244;28;20488;-69
2023/08/12 08:56:44;;;;;;;6.00;3.80;;;;;;;28.47;60.21;96779.16;2064690;28;20527;-69
2023/08/12 08:57:57;;;;;;;4.53;3.77;;;;;;;28.79;59.26;96773.75;2065942;28;20467;-70
2023/08/12 08:59:03;;;;;;;6.07;3.93;;;;;;;28.90;58.66;96770.66;2065654;28;20519;-70
2023/08/12 09:00:10;;;;;;;5.50;3.57;;;;;;;28.56;59.17;96776.44;2065327;28;20527;-69
2023/08/12 09:01:19;;;;;;;6.30;4.23;;;;;;;29.06;58.82;96777.72;2064846;28;20475;-70
2023/08/12 09:02:22;;;;;;;13.03;4.20;;;;;;;29.30;58.54;96781.22;2066946;28;20912;-70
2023/08/12 09:03:25;;;;;;;10.93;3.80;;;;;;;28.83;58.32;96783.94;2068258;28;20430;-69
2023/08/12 09:04:28;;;;;;;5.20;3.67;;;;;;;28.94;58.34;96782.69;2068792;28;20477;-70
2023/08/12 09:05:31;;;;;;;5.60;3.40;;;;;;;28.86;57.31;96781.94;2065992;28;20511;-70
2023/08/12 09:06:36;;;;;;;6.87;3.33;;;;;;;29.19;57.65;96773.56;2067606;28;20481;-71
2023/08/12 09:07:38;;;;;;;4.30;3.37;;;;;;;29.28;57.54;96775.19;2059919;28;20597;-70
2023/08/12 09:08:46;;;;;;;10.47;3.90;;;;;;;29.39;55.88;96773.91;2060171;28;20982;-70
2023/08/12 09:09:51;;;;;;;8.17;4.10;;;;;;;29.50;55.11;96762.69;2067914;28;20518;-69
2023/08/12 09:10:54;;;;;;;13.07;3.90;;;;;;;29.33;55.70;96770.09;2066085;28;20425;-70
2023/08/12 09:11:56;;;;;;;9.00;3.00;;;;;;;29.46;55.00;96772.97;2065838;28;20435;-70
2023/08/12 09:12:58;;;;;;;4.83;3.13;;;;;;;29.14;56.13;96777.66;2066969;28;20890;-69
2023/08/12 09:14:00;;;;;;;6.20;3.10;;;;;;;29.50;56.30;96778.81;2065286;28;21212;-72
2023/08/12 09:15:02;;;;;;;7.40;3.70;;;;;;;29.70;55.71;96776.41;2061694;28;20428;-71
2023/08/12 09:16:04;;;;;;;4.40;3.50;;;;;;;29.74;55.95;96775.00;2065921;28;20514;-71
2023/08/12 09:17:06;;;;;;;7.00;3.73;;;;;;;29.61;55.12;96774.81;2066703;28;20616;-69
2023/08/12 09:18:08;;;;;;;7.17;3.57;;;;;;;29.96;54.59;96775.13;2066848;28;20464;-69
2023/08/12 09:19:09;;;;;;;5.63;3.80;;;;;;;30.07;55.00;96769.25;2068665;28;20993;-70
2023/08/12 09:20:11;;;;;;;6.10;3.17;;;;;;;30.26;54.64;96770.50;2068609;28;20459;-70
2023/08/12 09:21:15;;;;;;;9.70;4.20;;;;;;;29.88;54.72;96769.81;2070677;28;20431;-67
2023/08/12 09:22:17;;;;;;;12.90;3.43;;;;;;;30.48;53.15;96769.72;2064889;28;20461;-68
2023/08/12 09:23:19;;;;;;;6.70;3.23;;;;;;;30.85;52.38;96775.88;2065237;28;20492;-68
2023/08/12 09:24:27;;;;;;;6.37;3.80;;;;;;;30.84;52.36;96768.81;2067992;28;20432;-68
2023/08/12 09:25:29;;;;;;;5.70;3.40;;;;;;;31.19;52.06;96769.75;2066728;28;20462;-68
2023/08/12 09:26:31;;;;;;;5.70;2.93;;;;;;;31.12;51.97;96770.72;2062860;28;20428;-68
2023/08/12 09:27:35;;;;;;;6.83;3.00;;;;;;;30.38;53.70;96775.38;2063486;28;20433;-69
2023/08/12 09:28:36;;;;;;;6.27;2.83;;;;;;;30.21;53.66;96770.22;2065495;28;20447;-69
2023/08/12 09:29:38;;;;;;;4.90;3.40;;;;;;;30.48;53.83;96773.25;2066422;28;20811;-68
2023/08/12 09:30:39;;;;;;;7.00;3.20;;;;;;;30.33;53.75;96765.16;2067475;28;20490;-69
2023/08/12 09:31:41;;;;;;;3.73;2.70;;;;;;;29.84;54.22;96774.72;2070379;28;20510;-68
2023/08/12 09:32:58;;;;;;;6.20;3.27;;;;;;;29.72;54.13;96766.28;2067807;28;20431;-68
2023/08/12 09:34:06;;;;;;;8.73;2.77;;;;;;;29.56;54.96;96759.25;2067288;28;20927;-68
2023/08/12 09:35:16;;;;;;;4.00;2.73;;;;;;;29.40;55.94;96764.81;2066464;28;20514;-68
2023/08/12 09:36:17;;;;;;;5.73;3.40;;;;;;;29.15;55.11;96763.19;2061247;28;21175;-68
2023/08/12 09:37:21;;;;;;;5.37;3.10;;;;;;;28.74;55.37;96755.50;2063134;28;20893;-68
2023/08/12 09:38:22;;;;;;;6.50;3.03;;;;;;;28.64;56.08;96741.44;2064792;28;20512;-68
2023/08/12 09:39:24;;;;;;;4.40;2.80;;;;;;;28.64;55.16;96733.38;2063394;28;20483;-68
2023/08/12 09:40:25;;;;;;;11.43;3.97;;;;;;;28.66;56.32;96736.75;2064813;28;20973;-68
2023/08/12 09:41:30;;;;;;;5.70;3.13;;;;;;;28.43;56.29;96742.94;2067462;28;20820;-68
2023/08/12 09:42:35;;;;;;;4.67;2.97;;;;;;;28.24;56.29;96738.88;2064540;28;20435;-68
2023/08/12 09:43:41;;;;;;;4.97;3.33;;;;;;;28.22;57.57;96740.91;2069980;28;21021;-68
2023/08/12 09:44:44;;;;;;;4.07;2.90;;;;;;;28.30;57.12;96740.00;2066022;28;20431;-67
2023/08/12 09:45:45;;;;;;;6.10;3.73;;;;;;;28.25;57.69;96742.41;2065817;28;20488;-68
2023/08/12 09:46:47;;;;;;;5.60;2.90;;;;;;;28.38;56.45;96745.34;2065822;28;20428;-68
2023/08/12 09:47:49;;;;;;;5.43;3.33;;;;;;;28.39;57.31;96743.47;2064485;28;20468;-68
2023/08/12 09:48:52;;;;;;;6.80;3.00;;;;;;;28.37;57.78;96754.41;2063988;28;20509;-68
2023/08/12 09:49:54;;;;;;;12.07;3.20;;;;;;;28.09;57.51;96760.28;2066346;28;20435;-69
2023/08/12 09:50:56;;;;;;;4.50;3.10;;;;;;;28.01;57.81;96758.44;2065383;28;20477;-67
2023/08/12 09:51:57;;;;;;;4.10;2.80;;;;;;;27.91;57.06;96755.16;2065552;28;20435;-69
2023/08/12 09:53:00;;;;;;;2.93;2.10;;;;;;;27.81;57.25;96760.72;2067157;28;20485;-68
2023/08/12 09:54:02;;;;;;;4.00;2.90;;;;;;;27.92;57.09;96766.69;2066403;28;20467;-68
2023/08/12 09:55:05;;;;;;;5.83;2.90;;;;;;;28.02;56.54;96757.44;2063252;28;20431;-67
2023/08/12 09:56:08;;;;;;;4.10;2.80;;;;;;;28.24;57.28;96759.50;2071310;28;20907;-68
2023/08/12 09:57:12;;;;;;;7.73;3.30;;;;;;;28.51;55.64;96758.16;2071326;28;20432;-67
2023/08/12 09:58:17;;;;;;;3.63;2.40;;;;;;;28.76;56.04;96748.09;2061801;28;20425;-68
2023/08/12 09:59:22;;;;;;;3.33;2.43;;;;;;;29.02;55.82;96752.22;2062239;28;20756;-68
2023/08/12 10:00:25;;;;;;;4.33;2.83;;;;;;;28.88;54.62;96743.13;2061078;28;21232;-69
2023/08/12 10:01:27;;;;;;;12.80;2.93;;;;;;;28.54;55.72;96744.38;2065734;28;20547;-67
2023/08/12 10:02:29;;;;;;;5.93;2.80;;;;;;;28.75;55.35;96745.59;2067484;28;20439;-68
2023/08/12 10:03:33;;;;;;;6.47;2.87;;;;;;;28.89;55.57;96743.97;2065821;28;20463;-68
2023/08/12 10:04:42;;;;;;;4.97;2.80;;;;;;;29.10;55.11;96743.25;2067293;28;20507;-68
2023/08/12 10:05:44;;;;;;;4.70;2.70;;;;;;;29.25;55.26;96740.56;2067331;28;20950;-68
2023/08/12 10:06:47;;;;;;;5.47;2.87;;;;;;;29.23;54.70;96732.72;2064941;28;20558;-69
2023/08/12 10:07:49;;;;;;;4.30;2.40;;;;;;;29.64;54.47;96737.63;2068844;28;20428;-68
2023/08/12 10:08:51;;;;;;;5.27;2.30;;;;;;;29.67;54.04;96738.28;2068319;28;20428;-67
2023/08/12 10:09:53;;;;;;;6.83;2.70;;;;;;;29.31;53.93;96747.94;2067217;28;21091;-67
2023/08/12 10:10:55;;;;;;;4.70;2.67;;;;;;;29.28;55.09;96749.16;2063454;28;20429;-68
2023/08/12 10:12:15;;;;;;;3.03;2.30;;;;;;;29.07;56.21;96743.63;2065383;28;20477;-67
2023/08/12 10:13:21;;;;;;;6.30;2.50;;;;;;;29.21;55.17;96739.28;2066271;28;20442;-68
2023/08/12 10:14:23;;;;;;;4.20;2.60;;;;;;;29.49;54.10;96742.19;2066156;28;20420;-68
2023/08/12 10:15:26;;;;;;;4.17;2.77;;;;;;;29.27;54.53;96731.31;2065224;28;20464;-67
2023/08/12 10:16:29;;;;;;;3.80;2.30;;;;;;;29.08;55.57;96743.44;2066422;28;20519;-67
2023/08/12 10:17:31;;;;;;;5.70;2.60;;;;;;;28.98;55.90;96741.00;2066566;28;20795;-67
2023/08/12 10:18:46;;;;;;;4.47;2.50;;;;;;;29.32;55.63;96738.88;2065383;28;20480;-68
2023/08/12 10:19:48;;;;;;;8.80;2.93;;;;;;;29.57;54.78;96738.56;2066100;28;20431;-67
2023/08/12 10:20:52;;;;;;;5.03;2.77;;;;;;;29.61;54.16;96734.47;2065621;28;20523;-68
2023/08/12 10:21:59;;;;;;;3.80;2.43;;;;;;;29.58;53.70;96735.69;2067209;28;20467;-68
2023/08/12 10:23:01;;;;;;;6.07;2.60;;;;;;;29.46;53.55;96724.56;2066827;28;20443;-67
2023/08/12 10:24:04;;;;;;;5.07;2.23;;;;;;;29.50;53.83;96725.03;2067688;28;20462;-68
2023/08/12 10:25:08;;;;;;;5.10;2.50;;;;;;;29.65;54.28;96722.34;2064253;28;20442;-67
2023/08/12 10:26:10;;;;;;;3.70;2.60;;;;;;;30.06;52.82;96721.00;2065581;28;20485;-68
2023/08/12 10:27:13;;;;;;;4.00;2.70;;;;;;;30.30;52.99;96722.47;2063498;28;20520;-68
2023/08/12 10:28:19;;;;;;;3.60;2.27;;;;;;;30.62;53.13;96723.03;2061545;28;20523;-68
2023/08/12 10:29:23;;;;;;;5.67;2.80;;;;;;;30.54;52.14;96726.69;2065887;28;20605;-69
2023/08/12 10:30:28;;;;;;;5.73;2.30;;;;;;;30.60;51.93;96722.38;2065465;28;21013;-68
2023/08/12 10:31:30;;;;;;;7.87;2.90;;;;;;;30.42;51.98;96728.19;2066621;28;20424;-68
2023/08/12 10:32:32;;;;;;;5.47;3.30;;;;;;;30.82;50.83;96733.13;2066132;28;20454;-69
2023/08/12 10:33:38;;;;;;;4.47;2.50;;;;;;;30.14;51.54;96726.25;2066295;28;20969;-68
2023/08/12 10:34:40;;;;;;;6.73;2.70;;;;;;;30.04;52.59;96731.09;2065867;28;20429;-68
2023/08/12 10:35:46;;;;;;;10.93;3.00;;;;;;;30.69;51.97;96728.47;2066983;28;20887;-68
2023/08/12 10:36:53;;;;;;;5.73;2.77;;;;;;;30.63;51.36;96735.47;2058444;28;20456;-67
2023/08/12 10:38:06;;;;;;;6.50;3.10;;;;;;;30.58;51.32;96736.03;2059254;28;20782;-68
2023/08/12 10:39:10;;;;;;;6.80;2.73;;;;;;;30.50;51.09;96736.19;2068370;28;20459;-68
2023/08/12 10:40:22;;;;;;;3.60;2.20;;;;;;;30.56;50.80;96743.50;2065855;28;20937;-67
2023/08/12 10:41:25;;;;;;;4.47;2.60;;;;;;;30.47;51.63;96739.22;2065397;28;20551;-68
2023/08/12 10:42:44;;;;;;;4.60;2.57;;;;;;;30.30;51.54;96742.16;2066566;28;20423;-66
2023/08/12 10:43:55;;;;;;;4.10;2.53;;;;;;;30.91;50.83;96734.66;2065321;28;20461;-67
2023/08/12 10:44:57;;;;;;;3.73;2.67;;;;;;;30.86;50.39;96727.16;2063801;28;21025;-67
2023/08/12 10:45:59;;;;;;;4.80;2.60;;;;;;;30.56;50.85;96737.25;2064132;28;20458;-67
2023/08/12 10:47:09;;;;;;;3.93;2.30;;;;;;;30.93;50.65;96732.59;2063796;28;20429;-68
2023/08/12 10:48:25;;;;;;;4.63;2.80;;;;;;;31.32;49.05;96736.63;2067109;28;20493;-67
2023/08/12 10:49:26;;;;;;;4.40;2.30;;;;;;;31.76;48.59;96726.53;2066201;28;20423;-68
2023/08/12 10:50:30;;;;;;;5.97;2.83;;;;;;;32.04;49.42;96729.13;2065780;28;20525;-67
2023/08/12 10:51:43;;;;;;;4.83;2.20;;;;;;;32.03;47.57;96721.22;2065908;28;20423;-68
2023/08/12 10:52:45;;;;;;;3.50;2.60;;;;;;;32.04;47.90;96726.41;2064239;28;20444;-67
2023/08/12 10:53:48;;;;;;;4.60;2.80;;;;;;;31.95;48.18;96726.78;2062833;28;20990;-69
2023/08/12 10:54:49;;;;;;;4.20;2.60;;;;;;;31.81;47.73;96729.44;2061078;28;20446;-68
2023/08/12 10:55:58;;;;;;;5.73;2.43;;;;;;;32.03;47.61;96730.13;2059308;28;20491;-67
2023/08/12 10:57:05;;;;;;;7.70;2.80;;;;;;;31.47;48.28;96736.50;2065084;28;21152;-68
2023/08/12 10:58:08;;;;;;;6.30;2.60;;;;;;;31.65;47.74;96727.91;2067152;28;20438;-68
2023/08/12 10:59:45;;;;;;;5.03;2.27;;;;;;;32.26;47.55;96720.06;2066517;28;20462;-68
2023/08/12 11:00:53;;;;;;;5.67;2.30;;;;;;;32.20;46.77;96727.09;2063230;28;20553;-68
2023/08/12 11:02:05;;;;;;;2.90;1.83;;;;;;;32.30;47.42;96727.53;2066700;28;20805;-68
2023/08/12 11:03:06;;;;;;;4.00;2.40;;;;;;;32.15;46.72;96724.16;2068140;28;20489;-68
2023/08/12 11:04:18;;;;;;;6.13;2.70;;;;;;;32.08;47.25;96718.75;2068791;28;21113;-68
2023/08/12 11:05:20;;;;;;;6.53;2.97;;;;;;;31.89;47.93;96718.47;2067616;28;20470;-68
2023/08/12 11:06:22;;;;;;;6.50;2.50;;;;;;;31.45;48.71;96719.69;2063309;28;20903;-68
2023/08/12 11:07:40;;;;;;;4.07;3.00;;;;;;;30.89;49.51;96724.09;2065841;28;20439;-68
2023/08/12 11:08:55;;;;;;;4.13;2.30;;;;;;;30.36;50.50;96719.03;2065911;28;20954;-67
2023/08/12 11:10:12;;;;;;;7.23;2.90;;;;;;;30.06;51.04;96721.00;2064927;28;20517;-67
2023/08/12 11:11:22;;;;;;;6.03;2.30;;;;;;;29.72;52.05;96708.97;2065374;28;20906;-67
2023/08/12 11:12:29;;;;;;;4.47;2.97;;;;;;;29.57;52.67;96714.34;2066774;28;20947;-67
2023/08/12 11:13:30;;;;;;;4.57;3.20;;;;;;;29.51;52.74;96710.56;2066205;28;20476;-68
2023/08/12 11:14:32;;;;;;;5.50;2.77;;;;;;;29.45;54.65;96712.13;2061449;28;20446;-67
2023/08/12 11:15:47;;;;;;;8.50;3.97;;;;;;;29.60;55.63;96716.69;2065034;28;20593;-68
2023/08/12 11:16:48;;;;;;;6.87;5.00;;;;;;;29.68;56.89;96713.88;2063447;28;21226;-68
2023/08/12 11:17:51;;;;;;;8.00;4.87;;;;;;;29.70;57.57;96706.47;2065042;28;20432;-69
2023/08/12 11:18:53;;;;;;;17.80;5.40;;;;;;;29.73;57.63;96710.63;2066618;28;20435;-68
2023/08/12 11:19:55;;;;;;;14.97;11.17;;;;;;;29.88;58.31;96716.00;2065096;28;20439;-69
2023/08/12 11:20:57;;;;;;;7.43;3.83;;;;;;;29.70;58.69;96714.53;2064872;28;20920;-69
2023/08/12 11:21:59;;;;;;;11.20;3.90;;;;;;;29.54;59.03;96717.44;2063559;28;20432;-70
2023/08/12 11:23:02;;;;;;;5.53;3.43;;;;;;;29.47;60.02;96714.63;2064985;28;21203;-69
2023/08/12 11:24:04;;;;;;;5.17;3.33;;;;;;;29.56;59.13;96721.59;2067432;28;20466;-69
2023/08/12 11:25:08;;;;;;;10.67;4.33;;;;;;;29.48;59.52;96722.53;2066458;28;20526;-69
2023/08/12 11:26:10;;;;;;;7.43;3.87;;;;;;;29.40;59.94;96719.09;2066710;28;20423;-70
2023/08/12 11:27:13;;;;;;;6.73;3.80;;;;;;;29.19;60.40;96717.13;2066208;28;20506;-69
2023/08/12 11:28:18;;;;;;;6.50;3.80;;;;;;;28.89;60.97;96709.03;2063100;28;20817;-69
2023/08/12 11:29:20;;;;;;;4.90;3.60;;;;;;;29.00;61.14;96720.16;2065652;28;20471;-69
2023/08/12 11:30:22;;;;;;;5.20;3.40;;;;;;;28.94;61.25;96714.69;2061364;28;20457;-70
2023/08/12 11:31:25;;;;;;;6.37;3.87;;;;;;;28.51;61.63;96720.56;2061241;28;20517;-69
2023/08/12 11:32:27;;;;;;;5.13;3.83;;;;;;;28.19;62.87;96715.25;2066639;28;20420;-69
2023/08/12 11:33:30;;;;;;;7.03;4.20;;;;;;;28.15;63.22;96718.47;2064310;28;20546;-70
2023/08/12 11:34:32;;;;;;;5.43;3.77;;;;;;;27.83;63.69;96718.47;2064962;28;20427;-67
2023/08/12 11:35:34;;;;;;;6.87;3.53;;;;;;;27.75;64.60;96718.50;2063090;28;20460;-67
2023/08/12 11:36:35;;;;;;;6.27;3.70;;;;;;;27.75;65.05;96715.81;2065619;28;20420;-66
2023/08/12 11:37:38;;;;;;;7.90;3.80;;;;;;;27.27;66.46;96718.47;2064948;28;20463;-67
2023/08/12 11:38:40;;;;;;;11.77;3.83;;;;;;;27.23;66.58;96725.19;2062082;28;20555;-68
2023/08/12 11:39:42;;;;;;;9.87;4.50;;;;;;;27.27;66.87;96731.88;2064775;28;20607;-68
2023/08/12 11:40:44;;;;;;;6.80;3.80;;;;;;;27.23;66.80;96735.09;2067002;28;20474;-67
2023/08/12 11:41:45;;;;;;;9.47;4.40;;;;;;;27.11;66.99;96737.28;2063776;28;20459;-67
2023/08/12 11:42:48;;;;;;;6.40;3.90;;;;;;;27.35;66.44;96739.06;2063807;28;20427;-66
2023/08/12 11:43:49;;;;;;;9.27;3.47;;;;;;;27.08;67.08;96745.66;2067547;28;20473;-66
2023/08/12 11:44:51;;;;;;;8.10;4.00;;;;;;;26.89;68.17;96736.97;2060274;28;20452;-66
2023/08/12 11:45:55;;;;;;;7.40;4.07;;;;;;;27.39;67.47;96740.44;2065065;28;21181;-66
2023/08/12 11:46:57;;;;;;;6.17;3.40;;;;;;;27.96;65.54;96730.44;2068095;28;20423;-66
2023/08/12 11:47:58;;;;;;;7.20;4.03;;;;;;;28.45;65.06;96732.84;2066021;28;20564;-66
2023/08/12 11:49:00;;;;;;;5.93;3.60;;;;;;;28.44;64.50;96735.72;2065923;28;20427;-66
2023/08/12 11:50:06;;;;;;;8.20;3.93;;;;;;;27.91;65.85;96722.94;2064276;28;20206;-66
2023/08/12 11:51:08;;;;;;;5.13;3.60;;;;;;;27.72;66.92;96713.50;2061802;28;20516;-66
2023/08/12 11:52:11;;;;;;;6.70;4.10;;;;;;;27.46;67.15;96706.53;2064399;28;20433;-66
2023/08/12 11:53:13;;;;;;;6.80;3.87;;;;;;;27.33;67.32;96709.75;2067853;28;20510;-66
2023/08/12 11:54:15;;;;;;;6.23;4.13;;;;;;;27.42;68.14;96713.28;2069006;28;20511;-67
2023/08/12 11:55:17;;;;;;;10.93;3.83;;;;;;;27.34;67.58;96716.78;2065660;28;20456;-66
2023/08/12 11:56:20;;;;;;;8.23;4.03;;;;;;;27.20;68.33;96721.00;2064545;28;20458;-66
2023/08/12 11:57:23;;;;;;;7.07;3.83;;;;;;;27.10;68.49;96735.63;2064141;28;20515;-66